KGPT/GPT METAR and TAF weather

Enter ICAO airport designator
Station Type Date Time Source
KGPT METAR 2021/05/15 23:53 UTC NOAA

KGPT 152353Z 14011KT 10SM CLR 24/15 A3013 RMK AO2 SLP203 T02390150 10267 20239 56006


Station Type Date Time Source
KGPT Decoded METAR 2021/05/15 23:53 UTC NOAA

GULFPORT-BILOXI REG AIRPORT , MS, United States (KGPT) 30-25N 089-05W 14M
May 15, 2021 - 07:53 PM EDT / 2021.05.15 2353 UTC
Wind: from the SE (140 degrees) at 13 MPH (11 KT):0
Visibility: 10 mile(s):0
Sky conditions: clear
Temperature: 75.0 F (23.9 C)
Dew Point: 59.0 F (15.0 C)
Relative Humidity: 57%
Pressure (altimeter): 30.13 in. Hg (1020 hPa)
Pressure tendency: 0.02 inches (0.6 hPa) lower than three hours ago
ob: KGPT 152353Z 14011KT 10SM CLR 24/15 A3013 RMK AO2 SLP203 T02390150 10267 20239 56006
cycle: 0

Station Type Date Time Source
KGPT TAF 2021/05/15 19:10 UTC NOAA

TAF
AMD KGPT 151908Z 1519/1618 15013KT P6SM FEW040 FEW250
FM160200 14006KT P6SM FEW250
FM161400 12010KT P6SM FEW020 FEW250
FM161700 12012G20KT P6SM FEW020 SCT250

Example: see airport list